sensor_id;sensor_type;location;lat;lon;timestamp;P1;durP1;ratioP1;P2;durP2;ratioP2
27225;SDS011;14732;51.074;3.788;2023-02-25T00:02:09;9.02;;;1.48;;
27225;SDS011;14732;51.074;3.788;2023-02-25T00:04:35;9.10;;;1.27;;
27225;SDS011;14732;51.074;3.788;2023-02-25T00:07:01;7.20;;;1.08;;
27225;SDS011;14732;51.074;3.788;2023-02-25T00:09:27;8.48;;;1.05;;
27225;SDS011;14732;51.074;3.788;2023-02-25T00:11:53;7.00;;;0.90;;
27225;SDS011;14732;51.074;3.788;2023-02-25T00:14:20;7.35;;;1.05;;
27225;SDS011;14732;51.074;3.788;2023-02-25T00:16:47;7.20;;;0.95;;
27225;SDS011;14732;51.074;3.788;2023-02-25T00:19:13;4.70;;;0.82;;
27225;SDS011;14732;51.074;3.788;2023-02-25T00:21:39;7.35;;;1.10;;
27225;SDS011;14732;51.074;3.788;2023-02-25T00:24:05;5.90;;;0.98;;
27225;SDS011;14732;51.074;3.788;2023-02-25T00:26:31;6.40;;;0.88;;
27225;SDS011;14732;51.074;3.788;2023-02-25T00:28:56;5.65;;;1.27;;
27225;SDS011;14732;51.074;3.788;2023-02-25T00:31:23;9.98;;;0.95;;
27225;SDS011;14732;51.074;3.788;2023-02-25T00:33:49;6.53;;;1.17;;
27225;SDS011;14732;51.074;3.788;2023-02-25T00:36:20;3.28;;;0.73;;
27225;SDS011;14732;51.074;3.788;2023-02-25T00:38:51;10.93;;;1.00;;
27225;SDS011;14732;51.074;3.788;2023-02-25T00:41:19;6.32;;;0.88;;
27225;SDS011;14732;51.074;3.788;2023-02-25T00:43:51;7.50;;;1.00;;
27225;SDS011;14732;51.074;3.788;2023-02-25T00:46:18;5.00;;;0.80;;
27225;SDS011;14732;51.074;3.788;2023-02-25T00:48:44;6.40;;;0.90;;
27225;SDS011;14732;51.074;3.788;2023-02-25T00:51:11;7.65;;;1.08;;
27225;SDS011;14732;51.074;3.788;2023-02-25T00:53:41;6.90;;;1.40;;
27225;SDS011;14732;51.074;3.788;2023-02-25T00:56:08;5.75;;;1.27;;
27225;SDS011;14732;51.074;3.788;2023-02-25T00:58:38;8.65;;;0.80;;
27225;SDS011;14732;51.074;3.788;2023-02-25T01:01:05;10.75;;;1.20;;
27225;SDS011;14732;51.074;3.788;2023-02-25T01:03:40;10.65;;;1.35;;
27225;SDS011;14732;51.074;3.788;2023-02-25T01:06:09;8.93;;;2.17;;
27225;SDS011;14732;51.074;3.788;2023-02-25T01:08:35;14.90;;;2.35;;
27225;SDS011;14732;51.074;3.788;2023-02-25T01:11:08;9.68;;;2.15;;
27225;SDS011;14732;51.074;3.788;2023-02-25T01:13:45;12.35;;;2.78;;
27225;SDS011;14732;51.074;3.788;2023-02-25T01:16:16;9.10;;;2.28;;
27225;SDS011;14732;51.074;3.788;2023-02-25T01:18:44;13.43;;;2.75;;
27225;SDS011;14732;51.074;3.788;2023-02-25T01:21:14;14.02;;;2.25;;
27225;SDS011;14732;51.074;3.788;2023-02-25T01:23:42;10.07;;;1.77;;
27225;SDS011;14732;51.074;3.788;2023-02-25T01:26:09;10.93;;;2.00;;
27225;SDS011;14732;51.074;3.788;2023-02-25T01:28:35;15.40;;;2.25;;
27225;SDS011;14732;51.074;3.788;2023-02-25T01:31:00;13.10;;;2.15;;
27225;SDS011;14732;51.074;3.788;2023-02-25T01:33:26;6.32;;;1.83;;
27225;SDS011;14732;51.074;3.788;2023-02-25T01:35:52;10.85;;;1.92;;
27225;SDS011;14732;51.074;3.788;2023-02-25T01:38:17;11.20;;;1.92;;
27225;SDS011;14732;51.074;3.788;2023-02-25T01:40:43;11.68;;;2.38;;
27225;SDS011;14732;51.074;3.788;2023-02-25T01:43:13;11.98;;;2.55;;
27225;SDS011;14732;51.074;3.788;2023-02-25T01:45:43;10.65;;;2.10;;
27225;SDS011;14732;51.074;3.788;2023-02-25T01:50:44;11.00;;;2.67;;
27225;SDS011;14732;51.074;3.788;2023-02-25T01:53:14;9.48;;;2.08;;
27225;SDS011;14732;51.074;3.788;2023-02-25T01:55:43;14.18;;;2.20;;
27225;SDS011;14732;51.074;3.788;2023-02-25T01:58:09;15.45;;;2.10;;
27225;SDS011;14732;51.074;3.788;2023-02-25T02:00:36;12.05;;;1.73;;
27225;SDS011;14732;51.074;3.788;2023-02-25T02:03:02;9.63;;;1.58;;
27225;SDS011;14732;51.074;3.788;2023-02-25T02:05:36;10.63;;;1.20;;
27225;SDS011;14732;51.074;3.788;2023-02-25T02:08:25;11.95;;;1.40;;
27225;SDS011;14732;51.074;3.788;2023-02-25T02:10:52;9.50;;;1.30;;
27225;SDS011;14732;51.074;3.788;2023-02-25T02:13:18;12.43;;;1.85;;
27225;SDS011;14732;51.074;3.788;2023-02-25T02:15:52;13.55;;;1.85;;
27225;SDS011;14732;51.074;3.788;2023-02-25T02:18:42;9.02;;;1.60;;
27225;SDS011;14732;51.074;3.788;2023-02-25T02:21:19;13.02;;;2.03;;
27225;SDS011;14732;51.074;3.788;2023-02-25T02:26:59;11.80;;;1.98;;
27225;SDS011;14732;51.074;3.788;2023-02-25T02:43:37;10.15;;;1.75;;
27225;SDS011;14732;51.074;3.788;2023-02-25T02:49:25;9.27;;;1.52;;
27225;SDS011;14732;51.074;3.788;2023-02-25T02:52:01;13.32;;;1.35;;
27225;SDS011;14732;51.074;3.788;2023-02-25T02:54:31;11.30;;;1.67;;
27225;SDS011;14732;51.074;3.788;2023-02-25T02:56:59;11.75;;;1.10;;
27225;SDS011;14732;51.074;3.788;2023-02-25T02:59:31;11.48;;;1.98;;
27225;SDS011;14732;51.074;3.788;2023-02-25T03:02:28;16.83;;;1.88;;
27225;SDS011;14732;51.074;3.788;2023-02-25T03:04:58;14.40;;;1.50;;
27225;SDS011;14732;51.074;3.788;2023-02-25T03:07:28;8.18;;;1.50;;
27225;SDS011;14732;51.074;3.788;2023-02-25T03:09:58;8.05;;;1.67;;
27225;SDS011;14732;51.074;3.788;2023-02-25T03:12:28;12.30;;;1.67;;
27225;SDS011;14732;51.074;3.788;2023-02-25T03:14:54;9.65;;;1.85;;
27225;SDS011;14732;51.074;3.788;2023-02-25T03:17:25;6.55;;;1.15;;
27225;SDS011;14732;51.074;3.788;2023-02-25T03:19:54;17.63;;;1.52;;
27225;SDS011;14732;51.074;3.788;2023-02-25T03:22:35;10.90;;;1.58;;
27225;SDS011;14732;51.074;3.788;2023-02-25T03:25:04;8.90;;;1.50;;
27225;SDS011;14732;51.074;3.788;2023-02-25T03:27:46;11.48;;;1.60;;
27225;SDS011;14732;51.074;3.788;2023-02-25T03:33:41;12.00;;;1.40;;
27225;SDS011;14732;51.074;3.788;2023-02-25T03:36:17;11.18;;;1.52;;
27225;SDS011;14732;51.074;3.788;2023-02-25T03:38:48;11.30;;;1.40;;
27225;SDS011;14732;51.074;3.788;2023-02-25T03:41:18;10.45;;;1.48;;
27225;SDS011;14732;51.074;3.788;2023-02-25T03:43:49;13.20;;;1.73;;
27225;SDS011;14732;51.074;3.788;2023-02-25T03:46:19;21.83;;;2.75;;
27225;SDS011;14732;51.074;3.788;2023-02-25T03:48:46;12.52;;;1.90;;
27225;SDS011;14732;51.074;3.788;2023-02-25T03:51:15;16.13;;;2.42;;
27225;SDS011;14732;51.074;3.788;2023-02-25T03:53:45;9.65;;;1.80;;
27225;SDS011;14732;51.074;3.788;2023-02-25T03:56:11;17.02;;;2.47;;
27225;SDS011;14732;51.074;3.788;2023-02-25T03:58:38;14.80;;;1.95;;
27225;SDS011;14732;51.074;3.788;2023-02-25T04:01:23;14.23;;;1.98;;
27225;SDS011;14732;51.074;3.788;2023-02-25T04:03:53;10.98;;;1.52;;
27225;SDS011;14732;51.074;3.788;2023-02-25T04:06:22;14.43;;;1.88;;
27225;SDS011;14732;51.074;3.788;2023-02-25T04:08:49;10.27;;;1.38;;
27225;SDS011;14732;51.074;3.788;2023-02-25T04:11:15;12.93;;;1.80;;
27225;SDS011;14732;51.074;3.788;2023-02-25T04:13:41;16.27;;;1.83;;
27225;SDS011;14732;51.074;3.788;2023-02-25T04:16:06;17.30;;;1.67;;
27225;SDS011;14732;51.074;3.788;2023-02-25T04:18:32;14.40;;;1.63;;
27225;SDS011;14732;51.074;3.788;2023-02-25T04:20:59;14.75;;;1.60;;
27225;SDS011;14732;51.074;3.788;2023-02-25T04:23:25;12.98;;;2.03;;
27225;SDS011;14732;51.074;3.788;2023-02-25T04:25:50;9.00;;;1.88;;
27225;SDS011;14732;51.074;3.788;2023-02-25T04:28:16;13.25;;;1.63;;
27225;SDS011;14732;51.074;3.788;2023-02-25T04:30:42;15.25;;;1.73;;
27225;SDS011;14732;51.074;3.788;2023-02-25T04:33:09;10.77;;;1.55;;
27225;SDS011;14732;51.074;3.788;2023-02-25T04:35:35;14.40;;;1.70;;
27225;SDS011;14732;51.074;3.788;2023-02-25T04:38:01;11.68;;;1.52;;
27225;SDS011;14732;51.074;3.788;2023-02-25T04:40:27;16.08;;;1.85;;
27225;SDS011;14732;51.074;3.788;2023-02-25T04:42:53;10.20;;;1.60;;
27225;SDS011;14732;51.074;3.788;2023-02-25T04:45:19;10.35;;;1.45;;
27225;SDS011;14732;51.074;3.788;2023-02-25T04:47:50;11.55;;;1.90;;
27225;SDS011;14732;51.074;3.788;2023-02-25T04:50:25;11.52;;;1.60;;
27225;SDS011;14732;51.074;3.788;2023-02-25T04:52:50;14.13;;;1.55;;
27225;SDS011;14732;51.074;3.788;2023-02-25T04:55:16;13.77;;;1.80;;
27225;SDS011;14732;51.074;3.788;2023-02-25T04:57:42;7.65;;;1.73;;
27225;SDS011;14732;51.074;3.788;2023-02-25T05:00:09;10.38;;;1.80;;
27225;SDS011;14732;51.074;3.788;2023-02-25T05:02:40;13.18;;;1.67;;
27225;SDS011;14732;51.074;3.788;2023-02-25T05:05:07;11.48;;;1.77;;
27225;SDS011;14732;51.074;3.788;2023-02-25T05:07:33;9.90;;;2.15;;
27225;SDS011;14732;51.074;3.788;2023-02-25T05:09:59;12.57;;;1.90;;
27225;SDS011;14732;51.074;3.788;2023-02-25T05:12:25;10.60;;;1.67;;
27225;SDS011;14732;51.074;3.788;2023-02-25T05:14:50;15.90;;;2.30;;
27225;SDS011;14732;51.074;3.788;2023-02-25T05:17:16;13.30;;;1.45;;
27225;SDS011;14732;51.074;3.788;2023-02-25T05:19:42;8.70;;;1.42;;
27225;SDS011;14732;51.074;3.788;2023-02-25T05:22:08;10.50;;;1.52;;
27225;SDS011;14732;51.074;3.788;2023-02-25T05:24:34;6.65;;;1.30;;
27225;SDS011;14732;51.074;3.788;2023-02-25T05:27:00;12.48;;;1.60;;
27225;SDS011;14732;51.074;3.788;2023-02-25T05:29:32;11.88;;;1.50;;
27225;SDS011;14732;51.074;3.788;2023-02-25T05:32:01;10.10;;;1.50;;
27225;SDS011;14732;51.074;3.788;2023-02-25T05:34:27;9.13;;;1.42;;
27225;SDS011;14732;51.074;3.788;2023-02-25T05:36:52;10.90;;;1.23;;
27225;SDS011;14732;51.074;3.788;2023-02-25T05:39:18;10.68;;;1.58;;
27225;SDS011;14732;51.074;3.788;2023-02-25T05:41:44;8.82;;;1.17;;
27225;SDS011;14732;51.074;3.788;2023-02-25T05:44:10;9.70;;;1.23;;
27225;SDS011;14732;51.074;3.788;2023-02-25T05:46:35;5.50;;;1.27;;
27225;SDS011;14732;51.074;3.788;2023-02-25T05:49:01;13.98;;;1.92;;
27225;SDS011;14732;51.074;3.788;2023-02-25T05:51:27;6.57;;;1.38;;
27225;SDS011;14732;51.074;3.788;2023-02-25T05:53:54;10.10;;;1.48;;
27225;SDS011;14732;51.074;3.788;2023-02-25T05:56:21;13.90;;;1.92;;
27225;SDS011;14732;51.074;3.788;2023-02-25T05:58:49;8.73;;;1.30;;
27225;SDS011;14732;51.074;3.788;2023-02-25T06:01:16;9.35;;;1.45;;
27225;SDS011;14732;51.074;3.788;2023-02-25T06:03:44;8.68;;;1.42;;
27225;SDS011;14732;51.074;3.788;2023-02-25T06:06:11;13.35;;;1.90;;
27225;SDS011;14732;51.074;3.788;2023-02-25T06:08:38;8.63;;;1.45;;
27225;SDS011;14732;51.074;3.788;2023-02-25T06:11:06;10.43;;;1.30;;
27225;SDS011;14732;51.074;3.788;2023-02-25T06:13:32;7.50;;;1.52;;
27225;SDS011;14732;51.074;3.788;2023-02-25T06:16:01;11.05;;;1.50;;
27225;SDS011;14732;51.074;3.788;2023-02-25T06:18:30;12.07;;;1.45;;
27225;SDS011;14732;51.074;3.788;2023-02-25T06:21:08;13.93;;;1.75;;
27225;SDS011;14732;51.074;3.788;2023-02-25T06:23:35;12.45;;;1.63;;
27225;SDS011;14732;51.074;3.788;2023-02-25T06:26:03;11.98;;;1.45;;
27225;SDS011;14732;51.074;3.788;2023-02-25T06:28:31;10.65;;;1.52;;
27225;SDS011;14732;51.074;3.788;2023-02-25T06:30:58;14.45;;;1.83;;
27225;SDS011;14732;51.074;3.788;2023-02-25T06:33:24;12.52;;;1.77;;
27225;SDS011;14732;51.074;3.788;2023-02-25T06:35:53;14.23;;;1.50;;
27225;SDS011;14732;51.074;3.788;2023-02-25T06:38:19;14.02;;;1.48;;
27225;SDS011;14732;51.074;3.788;2023-02-25T06:40:46;13.10;;;1.83;;
27225;SDS011;14732;51.074;3.788;2023-02-25T06:43:12;12.25;;;1.50;;
27225;SDS011;14732;51.074;3.788;2023-02-25T06:45:38;9.57;;;1.60;;
27225;SDS011;14732;51.074;3.788;2023-02-25T06:48:04;12.02;;;2.40;;
27225;SDS011;14732;51.074;3.788;2023-02-25T06:50:30;12.40;;;2.00;;
27225;SDS011;14732;51.074;3.788;2023-02-25T06:52:57;14.32;;;2.10;;
27225;SDS011;14732;51.074;3.788;2023-02-25T06:55:23;13.27;;;2.08;;
27225;SDS011;14732;51.074;3.788;2023-02-25T06:57:49;14.82;;;2.22;;
27225;SDS011;14732;51.074;3.788;2023-02-25T07:00:14;18.85;;;2.75;;
27225;SDS011;14732;51.074;3.788;2023-02-25T07:02:40;14.65;;;2.53;;
27225;SDS011;14732;51.074;3.788;2023-02-25T07:05:06;17.92;;;2.88;;
27225;SDS011;14732;51.074;3.788;2023-02-25T07:07:32;13.95;;;1.70;;
27225;SDS011;14732;51.074;3.788;2023-02-25T07:09:58;10.82;;;1.25;;
27225;SDS011;14732;51.074;3.788;2023-02-25T07:12:23;8.95;;;1.50;;
27225;SDS011;14732;51.074;3.788;2023-02-25T07:14:49;8.55;;;1.00;;
27225;SDS011;14732;51.074;3.788;2023-02-25T07:17:15;10.40;;;1.35;;
27225;SDS011;14732;51.074;3.788;2023-02-25T07:19:41;6.38;;;1.00;;
27225;SDS011;14732;51.074;3.788;2023-02-25T07:22:06;9.80;;;0.95;;
27225;SDS011;14732;51.074;3.788;2023-02-25T07:24:34;5.70;;;1.05;;
27225;SDS011;14732;51.074;3.788;2023-02-25T07:27:00;9.30;;;0.90;;
27225;SDS011;14732;51.074;3.788;2023-02-25T07:29:26;4.57;;;0.73;;
27225;SDS011;14732;51.074;3.788;2023-02-25T07:31:51;5.38;;;0.93;;
27225;SDS011;14732;51.074;3.788;2023-02-25T07:34:17;6.82;;;1.20;;
27225;SDS011;14732;51.074;3.788;2023-02-25T07:36:43;6.63;;;1.17;;
27225;SDS011;14732;51.074;3.788;2023-02-25T07:39:09;6.47;;;0.80;;
27225;SDS011;14732;51.074;3.788;2023-02-25T07:41:36;9.85;;;1.20;;
27225;SDS011;14732;51.074;3.788;2023-02-25T07:44:02;6.72;;;2.17;;
27225;SDS011;14732;51.074;3.788;2023-02-25T07:46:28;5.63;;;2.08;;
27225;SDS011;14732;51.074;3.788;2023-02-25T07:48:54;5.53;;;1.40;;
27225;SDS011;14732;51.074;3.788;2023-02-25T07:51:21;7.75;;;1.60;;
27225;SDS011;14732;51.074;3.788;2023-02-25T07:53:48;10.77;;;1.60;;
27225;SDS011;14732;51.074;3.788;2023-02-25T07:56:15;11.45;;;2.53;;
27225;SDS011;14732;51.074;3.788;2023-02-25T07:58:43;22.33;;;4.40;;
27225;SDS011;14732;51.074;3.788;2023-02-25T08:01:09;20.33;;;4.45;;
27225;SDS011;14732;51.074;3.788;2023-02-25T08:03:47;49.08;;;9.02;;
27225;SDS011;14732;51.074;3.788;2023-02-25T08:06:13;14.68;;;2.90;;
27225;SDS011;14732;51.074;3.788;2023-02-25T08:08:39;20.00;;;2.83;;
27225;SDS011;14732;51.074;3.788;2023-02-25T08:11:08;18.83;;;3.60;;
27225;SDS011;14732;51.074;3.788;2023-02-25T08:13:37;14.52;;;3.60;;
27225;SDS011;14732;51.074;3.788;2023-02-25T08:16:03;16.00;;;3.72;;
27225;SDS011;14732;51.074;3.788;2023-02-25T08:18:30;22.42;;;5.40;;
27225;SDS011;14732;51.074;3.788;2023-02-25T08:20:55;11.80;;;2.45;;
27225;SDS011;14732;51.074;3.788;2023-02-25T08:23:22;12.23;;;3.42;;
27225;SDS011;14732;51.074;3.788;2023-02-25T08:25:56;20.00;;;4.25;;
27225;SDS011;14732;51.074;3.788;2023-02-25T08:28:22;13.43;;;2.42;;
27225;SDS011;14732;51.074;3.788;2023-02-25T08:30:50;12.35;;;3.53;;
27225;SDS011;14732;51.074;3.788;2023-02-25T08:33:16;8.50;;;2.00;;
27225;SDS011;14732;51.074;3.788;2023-02-25T08:35:42;8.48;;;1.65;;
27225;SDS011;14732;51.074;3.788;2023-02-25T08:38:08;16.02;;;1.98;;
27225;SDS011;14732;51.074;3.788;2023-02-25T08:40:34;14.82;;;2.58;;
27225;SDS011;14732;51.074;3.788;2023-02-25T08:43:00;11.05;;;1.60;;
27225;SDS011;14732;51.074;3.788;2023-02-25T08:45:25;8.38;;;2.05;;
27225;SDS011;14732;51.074;3.788;2023-02-25T08:47:52;9.18;;;1.60;;
27225;SDS011;14732;51.074;3.788;2023-02-25T08:50:18;8.07;;;1.55;;
27225;SDS011;14732;51.074;3.788;2023-02-25T08:52:44;5.85;;;1.45;;
27225;SDS011;14732;51.074;3.788;2023-02-25T08:55:10;11.50;;;1.50;;
27225;SDS011;14732;51.074;3.788;2023-02-25T08:57:40;10.15;;;1.75;;
27225;SDS011;14732;51.074;3.788;2023-02-25T09:00:07;6.55;;;1.50;;
27225;SDS011;14732;51.074;3.788;2023-02-25T09:02:34;13.27;;;2.63;;
27225;SDS011;14732;51.074;3.788;2023-02-25T09:05:00;9.20;;;2.33;;
27225;SDS011;14732;51.074;3.788;2023-02-25T09:07:28;10.40;;;2.08;;
27225;SDS011;14732;51.074;3.788;2023-02-25T09:09:54;12.40;;;2.20;;
27225;SDS011;14732;51.074;3.788;2023-02-25T09:12:20;14.65;;;2.35;;
27225;SDS011;14732;51.074;3.788;2023-02-25T09:14:45;11.48;;;1.98;;
27225;SDS011;14732;51.074;3.788;2023-02-25T09:17:11;8.70;;;1.60;;
27225;SDS011;14732;51.074;3.788;2023-02-25T09:19:37;7.15;;;1.88;;
27225;SDS011;14732;51.074;3.788;2023-02-25T09:22:03;11.90;;;1.67;;
27225;SDS011;14732;51.074;3.788;2023-02-25T09:24:31;14.15;;;2.13;;
27225;SDS011;14732;51.074;3.788;2023-02-25T09:27:03;9.45;;;1.80;;
27225;SDS011;14732;51.074;3.788;2023-02-25T09:29:36;15.30;;;2.10;;
27225;SDS011;14732;51.074;3.788;2023-02-25T09:32:03;10.13;;;2.42;;
27225;SDS011;14732;51.074;3.788;2023-02-25T09:34:29;7.75;;;1.40;;
27225;SDS011;14732;51.074;3.788;2023-02-25T09:36:57;6.47;;;1.45;;
27225;SDS011;14732;51.074;3.788;2023-02-25T09:39:24;11.32;;;1.77;;
27225;SDS011;14732;51.074;3.788;2023-02-25T09:41:51;10.93;;;1.60;;
27225;SDS011;14732;51.074;3.788;2023-02-25T09:47:10;16.60;;;1.85;;
27225;SDS011;14732;51.074;3.788;2023-02-25T09:55:36;10.15;;;1.35;;
27225;SDS011;14732;51.074;3.788;2023-02-25T10:03:47;12.38;;;2.10;;
27225;SDS011;14732;51.074;3.788;2023-02-25T10:20:41;11.95;;;1.75;;
27225;SDS011;14732;51.074;3.788;2023-02-25T10:25:59;16.17;;;2.20;;
27225;SDS011;14732;51.074;3.788;2023-02-25T10:28:35;14.88;;;1.60;;
27225;SDS011;14732;51.074;3.788;2023-02-25T10:33:33;14.15;;;3.17;;
27225;SDS011;14732;51.074;3.788;2023-02-25T10:36:20;13.73;;;2.05;;
27225;SDS011;14732;51.074;3.788;2023-02-25T10:38:53;13.55;;;2.10;;
27225;SDS011;14732;51.074;3.788;2023-02-25T10:41:20;11.65;;;2.00;;
27225;SDS011;14732;51.074;3.788;2023-02-25T10:43:48;9.60;;;1.95;;
27225;SDS011;14732;51.074;3.788;2023-02-25T10:46:24;17.65;;;3.75;;
27225;SDS011;14732;51.074;3.788;2023-02-25T10:49:01;24.45;;;5.28;;
27225;SDS011;14732;51.074;3.788;2023-02-25T10:51:58;13.65;;;1.75;;
27225;SDS011;14732;51.074;3.788;2023-02-25T10:54:44;14.70;;;2.53;;
27225;SDS011;14732;51.074;3.788;2023-02-25T10:57:13;14.63;;;2.38;;
27225;SDS011;14732;51.074;3.788;2023-02-25T10:59:41;9.82;;;1.70;;
27225;SDS011;14732;51.074;3.788;2023-02-25T11:02:21;10.93;;;1.67;;
27225;SDS011;14732;51.074;3.788;2023-02-25T11:04:54;10.90;;;1.98;;
27225;SDS011;14732;51.074;3.788;2023-02-25T11:10:15;10.52;;;1.80;;
27225;SDS011;14732;51.074;3.788;2023-02-25T11:12:44;10.88;;;1.85;;
27225;SDS011;14732;51.074;3.788;2023-02-25T11:17:46;8.85;;;1.73;;
27225;SDS011;14732;51.074;3.788;2023-02-25T11:20:20;10.07;;;1.58;;
27225;SDS011;14732;51.074;3.788;2023-02-25T11:22:51;7.53;;;1.50;;
27225;SDS011;14732;51.074;3.788;2023-02-25T11:25:19;8.80;;;1.50;;
27225;SDS011;14732;51.074;3.788;2023-02-25T11:27:54;10.02;;;1.75;;
27225;SDS011;14732;51.074;3.788;2023-02-25T11:30:33;15.40;;;2.10;;
27225;SDS011;14732;51.074;3.788;2023-02-25T11:33:03;18.30;;;2.05;;
27225;SDS011;14732;51.074;3.788;2023-02-25T11:35:37;11.57;;;1.73;;
27225;SDS011;14732;51.074;3.788;2023-02-25T11:38:24;14.48;;;1.98;;
27225;SDS011;14732;51.074;3.788;2023-02-25T11:40:52;12.48;;;1.77;;
27225;SDS011;14732;51.074;3.788;2023-02-25T11:43:20;12.98;;;1.60;;
27225;SDS011;14732;51.074;3.788;2023-02-25T11:45:49;7.28;;;1.25;;
27225;SDS011;14732;51.074;3.788;2023-02-25T11:48:38;14.38;;;1.85;;
27225;SDS011;14732;51.074;3.788;2023-02-25T11:56:40;8.30;;;1.80;;
27225;SDS011;14732;51.074;3.788;2023-02-25T12:04:44;13.07;;;1.88;;
27225;SDS011;14732;51.074;3.788;2023-02-25T12:22:02;10.00;;;1.38;;
27225;SDS011;14732;51.074;3.788;2023-02-25T12:41:17;10.52;;;1.70;;
27225;SDS011;14732;51.074;3.788;2023-02-25T12:52:13;9.27;;;2.63;;
27225;SDS011;14732;51.074;3.788;2023-02-25T13:23:01;17.90;;;3.50;;
27225;SDS011;14732;51.074;3.788;2023-02-25T13:31:42;6.90;;;1.00;;
27225;SDS011;14732;51.074;3.788;2023-02-25T13:48:54;5.82;;;1.35;;
27225;SDS011;14732;51.074;3.788;2023-02-25T13:54:24;7.32;;;1.17;;
27225;SDS011;14732;51.074;3.788;2023-02-25T14:05:12;6.15;;;1.20;;
27225;SDS011;14732;51.074;3.788;2023-02-25T14:08:11;6.38;;;1.13;;
27225;SDS011;14732;51.074;3.788;2023-02-25T14:22:50;8.90;;;1.45;;
27225;SDS011;14732;51.074;3.788;2023-02-25T14:42:02;4.18;;;0.70;;
27225;SDS011;14732;51.074;3.788;2023-02-25T14:47:13;5.88;;;1.00;;
27225;SDS011;14732;51.074;3.788;2023-02-25T14:55:27;3.47;;;0.73;;
27225;SDS011;14732;51.074;3.788;2023-02-25T15:22:16;4.78;;;1.33;;
27225;SDS011;14732;51.074;3.788;2023-02-25T15:24:51;7.22;;;1.00;;
27225;SDS011;14732;51.074;3.788;2023-02-25T15:30:04;4.30;;;1.10;;
27225;SDS011;14732;51.074;3.788;2023-02-25T15:38:01;5.50;;;1.40;;
27225;SDS011;14732;51.074;3.788;2023-02-25T15:43:42;7.60;;;1.30;;
27225;SDS011;14732;51.074;3.788;2023-02-25T15:45:44;5.13;;;1.02;;
27225;SDS011;14732;51.074;3.788;2023-02-25T15:55:45;6.05;;;1.30;;
27225;SDS011;14732;51.074;3.788;2023-02-25T15:58:58;4.00;;;1.20;;
27225;SDS011;14732;51.074;3.788;2023-02-25T16:01:43;4.30;;;0.90;;
27225;SDS011;14732;51.074;3.788;2023-02-25T16:03:52;7.63;;;1.30;;
27225;SDS011;14732;51.074;3.788;2023-02-25T16:09:11;5.25;;;1.48;;
27225;SDS011;14732;51.074;3.788;2023-02-25T16:11:42;9.23;;;1.50;;
27225;SDS011;14732;51.074;3.788;2023-02-25T16:14:21;4.53;;;1.38;;
27225;SDS011;14732;51.074;3.788;2023-02-25T16:19:28;5.57;;;1.52;;
27225;SDS011;14732;51.074;3.788;2023-02-25T16:22:01;8.80;;;1.73;;
27225;SDS011;14732;51.074;3.788;2023-02-25T16:24:29;9.07;;;3.00;;
27225;SDS011;14732;51.074;3.788;2023-02-25T16:34:57;4.85;;;1.10;;
27225;SDS011;14732;51.074;3.788;2023-02-25T16:40:15;12.70;;;1.45;;
27225;SDS011;14732;51.074;3.788;2023-02-25T16:42:45;6.03;;;1.40;;
27225;SDS011;14732;51.074;3.788;2023-02-25T16:45:20;5.53;;;1.23;;
27225;SDS011;14732;51.074;3.788;2023-02-25T16:48:07;11.82;;;1.65;;
27225;SDS011;14732;51.074;3.788;2023-02-25T16:50:46;4.45;;;1.17;;
27225;SDS011;14732;51.074;3.788;2023-02-25T16:53:19;8.23;;;1.30;;
27225;SDS011;14732;51.074;3.788;2023-02-25T16:55:48;7.50;;;1.20;;
27225;SDS011;14732;51.074;3.788;2023-02-25T17:00:48;6.25;;;1.50;;
27225;SDS011;14732;51.074;3.788;2023-02-25T17:03:17;7.80;;;1.52;;
27225;SDS011;14732;51.074;3.788;2023-02-25T17:05:57;7.43;;;1.70;;
27225;SDS011;14732;51.074;3.788;2023-02-25T17:08:28;10.75;;;1.90;;
27225;SDS011;14732;51.074;3.788;2023-02-25T17:10:54;9.13;;;2.00;;
27225;SDS011;14732;51.074;3.788;2023-02-25T17:15:50;8.65;;;2.30;;
27225;SDS011;14732;51.074;3.788;2023-02-25T17:18:19;6.45;;;1.90;;
27225;SDS011;14732;51.074;3.788;2023-02-25T17:23:37;8.93;;;1.83;;
27225;SDS011;14732;51.074;3.788;2023-02-25T17:26:04;6.43;;;1.40;;
27225;SDS011;14732;51.074;3.788;2023-02-25T17:28:30;5.45;;;1.50;;
27225;SDS011;14732;51.074;3.788;2023-02-25T17:33:34;10.65;;;1.95;;
27225;SDS011;14732;51.074;3.788;2023-02-25T17:36:10;8.35;;;1.80;;
27225;SDS011;14732;51.074;3.788;2023-02-25T17:38:43;9.55;;;1.98;;
27225;SDS011;14732;51.074;3.788;2023-02-25T17:41:16;7.03;;;1.60;;
27225;SDS011;14732;51.074;3.788;2023-02-25T17:43:43;4.68;;;1.60;;
27225;SDS011;14732;51.074;3.788;2023-02-25T17:46:22;12.77;;;2.03;;
27225;SDS011;14732;51.074;3.788;2023-02-25T17:48:54;12.45;;;3.55;;
27225;SDS011;14732;51.074;3.788;2023-02-25T17:51:29;8.45;;;2.75;;
27225;SDS011;14732;51.074;3.788;2023-02-25T17:54:07;9.10;;;2.92;;
27225;SDS011;14732;51.074;3.788;2023-02-25T17:56:37;5.53;;;1.55;;
27225;SDS011;14732;51.074;3.788;2023-02-25T17:59:27;14.25;;;1.67;;
27225;SDS011;14732;51.074;3.788;2023-02-25T18:01:59;8.03;;;1.60;;
27225;SDS011;14732;51.074;3.788;2023-02-25T18:04:39;8.77;;;2.00;;
27225;SDS011;14732;51.074;3.788;2023-02-25T18:07:19;7.25;;;1.80;;
27225;SDS011;14732;51.074;3.788;2023-02-25T18:09:48;12.32;;;1.90;;
27225;SDS011;14732;51.074;3.788;2023-02-25T18:15:22;8.10;;;1.50;;
27225;SDS011;14732;51.074;3.788;2023-02-25T18:17:40;8.38;;;2.25;;
27225;SDS011;14732;51.074;3.788;2023-02-25T18:20:31;8.65;;;1.92;;
27225;SDS011;14732;51.074;3.788;2023-02-25T18:23:07;9.80;;;1.60;;
27225;SDS011;14732;51.074;3.788;2023-02-25T18:26:33;4.53;;;1.60;;
27225;SDS011;14732;51.074;3.788;2023-02-25T18:28:36;12.82;;;2.00;;
27225;SDS011;14732;51.074;3.788;2023-02-25T18:31:02;6.82;;;1.73;;
27225;SDS011;14732;51.074;3.788;2023-02-25T18:33:28;8.60;;;2.00;;
27225;SDS011;14732;51.074;3.788;2023-02-25T18:35:54;11.25;;;2.25;;
27225;SDS011;14732;51.074;3.788;2023-02-25T18:38:21;5.60;;;1.65;;
27225;SDS011;14732;51.074;3.788;2023-02-25T18:40:48;6.32;;;1.63;;
27225;SDS011;14732;51.074;3.788;2023-02-25T18:43:16;7.05;;;1.55;;
27225;SDS011;14732;51.074;3.788;2023-02-25T18:45:58;6.78;;;2.22;;
27225;SDS011;14732;51.074;3.788;2023-02-25T18:48:24;20.80;;;7.03;;
27225;SDS011;14732;51.074;3.788;2023-02-25T18:50:50;15.02;;;5.13;;
27225;SDS011;14732;51.074;3.788;2023-02-25T18:53:16;17.15;;;8.57;;
27225;SDS011;14732;51.074;3.788;2023-02-25T18:55:45;14.98;;;6.05;;
27225;SDS011;14732;51.074;3.788;2023-02-25T18:58:11;10.65;;;3.17;;
27225;SDS011;14732;51.074;3.788;2023-02-25T19:00:38;11.13;;;4.18;;
27225;SDS011;14732;51.074;3.788;2023-02-25T19:03:04;8.93;;;2.25;;
27225;SDS011;14732;51.074;3.788;2023-02-25T19:05:33;9.15;;;1.70;;
27225;SDS011;14732;51.074;3.788;2023-02-25T19:08:00;7.25;;;2.00;;
27225;SDS011;14732;51.074;3.788;2023-02-25T19:10:29;8.85;;;1.80;;
27225;SDS011;14732;51.074;3.788;2023-02-25T19:13:02;5.65;;;1.63;;
27225;SDS011;14732;51.074;3.788;2023-02-25T19:15:31;13.02;;;2.20;;
27225;SDS011;14732;51.074;3.788;2023-02-25T19:17:57;9.85;;;1.80;;
27225;SDS011;14732;51.074;3.788;2023-02-25T19:20:22;8.32;;;1.60;;
27225;SDS011;14732;51.074;3.788;2023-02-25T19:22:49;8.32;;;1.80;;
27225;SDS011;14732;51.074;3.788;2023-02-25T19:25:23;9.43;;;1.85;;
27225;SDS011;14732;51.074;3.788;2023-02-25T19:27:51;7.28;;;1.90;;
27225;SDS011;14732;51.074;3.788;2023-02-25T19:30:19;9.48;;;1.70;;
27225;SDS011;14732;51.074;3.788;2023-02-25T19:32:47;11.02;;;1.75;;
27225;SDS011;14732;51.074;3.788;2023-02-25T19:35:13;11.68;;;1.98;;
27225;SDS011;14732;51.074;3.788;2023-02-25T19:37:39;7.97;;;1.98;;
27225;SDS011;14732;51.074;3.788;2023-02-25T19:40:07;5.25;;;1.65;;
27225;SDS011;14732;51.074;3.788;2023-02-25T19:42:36;9.63;;;1.77;;